Time;durP1;ratioP1;P1;durP2;ratioP2;P2;SDS_P1;SDS_P2;PMS_P1;PMS_P2;Temp;Humidity;BMP_temperature;BMP_pressure;BME280_temperature;BME280_humidity;BME280_pressure;Samples;Min_cycle;Max_cycle;Signal;HPM_P1;HPM_P2
2023/01/13 00:01:12;;;;;;;;;0.00;0.00;;;;;12.24;84.48;100774.66;6247225;22;45320;-42
2023/01/13 00:03:38;;;;;;;;;0.00;0.00;;;;;12.20;83.76;100767.97;6275573;22;45291;-41
2023/01/13 00:06:05;;;;;;;;;0.00;0.00;;;;;12.21;85.01;100766.13;6274806;22;45345;-42
2023/01/13 00:08:31;;;;;;;;;1.00;0.00;;;;;12.20;84.58;100751.13;6274025;22;45215;-42
2023/01/13 00:10:56;;;;;;;;;0.00;0.00;;;;;12.18;85.96;100761.97;6274616;22;45296;-43
2023/01/13 00:13:25;;;;;;;;;0.00;0.00;;;;;12.19;85.52;100776.97;6275543;22;45572;-41
2023/01/13 00:15:57;;;;;;;;;0.00;0.00;;;;;12.22;85.34;100808.66;6274683;22;46831;-42
2023/01/13 00:18:22;;;;;;;;;0.00;0.00;;;;;12.25;86.19;100804.84;6275110;22;45217;-42
2023/01/13 00:21:16;;;;;;;;;0.67;0.67;;;;;12.24;85.68;100785.34;6274347;22;45234;-43
2023/01/13 00:23:42;;;;;;;;;0.33;0.33;;;;;12.24;84.90;100777.31;6274790;22;45281;-44
2023/01/13 00:26:11;;;;;;;;;0.00;0.00;;;;;12.21;83.99;100780.31;6274456;22;46262;-42
2023/01/13 00:28:37;;;;;;;;;0.67;0.00;;;;;12.09;84.02;100762.06;6274301;22;45176;-44
2023/01/13 00:31:11;;;;;;;;;1.00;0.00;;;;;12.17;84.16;100770.09;6274769;22;45254;-41
2023/01/13 00:33:36;;;;;;;;;0.00;0.00;;;;;12.18;83.69;100777.13;6275160;22;45229;-41
2023/01/13 00:36:04;;;;;;;;;0.00;0.00;;;;;12.16;82.12;100774.59;6274212;22;46279;-41
2023/01/13 00:38:30;;;;;;;;;0.00;0.00;;;;;12.15;81.93;100774.78;6272312;22;45272;-43
2023/01/13 00:40:56;;;;;;;;;1.00;0.00;;;;;12.12;81.87;100764.41;6274361;22;45318;-41
2023/01/13 00:43:21;;;;;;;;;1.00;0.00;;;;;12.09;81.34;100778.88;6274363;22;45261;-42
2023/01/13 00:45:46;;;;;;;;;0.67;0.00;;;;;12.08;81.26;100777.22;6274146;22;45517;-41
2023/01/13 00:48:12;;;;;;;;;0.33;0.00;;;;;12.08;80.91;100779.03;6274709;22;45215;-42
2023/01/13 00:50:37;;;;;;;;;0.00;0.00;;;;;12.06;80.56;100776.53;6274516;22;45304;-42
2023/01/13 00:53:02;;;;;;;;;1.00;0.00;;;;;12.04;80.11;100773.19;6274541;22;45284;-42
2023/01/13 00:55:31;;;;;;;;;0.00;0.00;;;;;12.00;80.48;100763.81;6274552;22;45149;-41
2023/01/13 00:58:02;;;;;;;;;0.00;0.00;;;;;12.03;79.84;100765.34;6274050;22;45369;-42
2023/01/13 01:00:31;;;;;;;;;0.00;0.00;;;;;12.02;79.27;100753.03;6273974;22;45240;-41
2023/01/13 01:02:56;;;;;;;;;1.33;0.00;;;;;12.01;79.05;100765.53;6274758;22;45296;-41
2023/01/13 01:05:22;;;;;;;;;0.00;0.00;;;;;12.01;78.62;100772.66;6273538;22;46118;-41
2023/01/13 01:07:47;;;;;;;;;2.00;0.00;;;;;11.96;78.70;100768.63;6274221;22;45257;-41
2023/01/13 01:10:13;;;;;;;;;0.00;0.00;;;;;11.98;78.61;100769.31;6274059;22;45364;-41
2023/01/13 01:12:38;;;;;;;;;0.67;0.67;;;;;12.01;78.85;100778.84;6275362;22;45300;-43
2023/01/13 01:15:06;;;;;;;;;0.00;0.00;;;;;12.04;78.33;100777.69;6275767;22;45312;-41
2023/01/13 01:17:32;;;;;;;;;0.00;0.00;;;;;12.04;78.52;100780.34;6275320;22;45252;-42
2023/01/13 01:19:57;;;;;;;;;0.00;0.00;;;;;12.03;78.50;100776.84;6275490;22;45196;-41
2023/01/13 01:22:23;;;;;;;;;0.00;0.00;;;;;12.03;77.74;100781.34;6275999;22;45330;-41
2023/01/13 01:24:48;;;;;;;;;0.00;0.00;;;;;12.03;77.35;100770.69;6275080;22;47224;-41
2023/01/13 01:27:13;;;;;;;;;0.00;0.00;;;;;12.02;77.63;100769.84;6275796;22;45213;-43
2023/01/13 01:29:39;;;;;;;;;0.00;0.00;;;;;12.02;77.63;100769.00;6275796;22;45364;-41
2023/01/13 01:32:04;;;;;;;;;0.00;0.00;;;;;12.02;77.23;100767.19;6275627;22;45513;-46
2023/01/13 01:34:30;;;;;;;;;0.00;0.00;;;;;12.01;76.74;100778.84;6275163;22;45864;-41
2023/01/13 01:36:55;;;;;;;;;0.00;0.00;;;;;12.01;77.41;100775.31;6275406;22;45262;-46
2023/01/13 01:39:20;;;;;;;;;0.00;0.00;;;;;12.01;77.08;100775.31;6274680;22;45939;-42
2023/01/13 01:44:42;;;;;;;;;0.00;0.00;;;;;11.98;77.15;100768.50;6275409;22;45222;-43
2023/01/13 01:47:17;;;;;;;;;0.00;0.00;;;;;11.94;76.74;100767.13;6275257;22;45250;-44
2023/01/13 01:49:44;;;;;;;;;0.00;0.00;;;;;11.98;77.06;100757.81;6275861;22;45352;-41
2023/01/13 01:52:19;;;;;;;;;0.00;0.00;;;;;11.91;76.28;100757.59;6274546;22;45216;-45
2023/01/13 01:54:56;;;;;;;;;0.00;0.00;;;;;11.94;75.41;100765.28;6274817;22;46949;-41
2023/01/13 01:57:47;;;;;;;;;0.00;0.00;;;;;11.92;75.71;100761.09;6274807;22;45316;-42
2023/01/13 02:00:13;;;;;;;;;0.00;0.00;;;;;11.91;74.76;100770.91;6121239;23;46073;-41
2023/01/13 02:02:40;;;;;;;;;2.00;1.00;;;;;11.92;74.20;100763.75;6121509;23;45308;-42
2023/01/13 02:05:06;;;;;;;;;2.00;0.00;;;;;11.90;74.96;100768.41;6120523;23;46075;-54
2023/01/13 02:07:33;;;;;;;;;0.00;0.00;;;;;11.90;74.72;100784.41;6121150;23;45383;-55
2023/01/13 02:10:02;;;;;;;;;0.33;0.00;;;;;11.90;74.11;100781.75;6121151;23;45326;-51
2023/01/13 02:12:28;;;;;;;;;0.00;0.00;;;;;11.86;74.31;100791.03;6120733;23;45502;-49
2023/01/13 02:15:12;;;;;;;;;0.00;0.00;;;;;11.84;74.11;100790.34;6121109;23;46808;-48
2023/01/13 02:18:12;;;;;;;;;0.00;0.00;;;;;11.80;74.61;100797.81;6120790;23;45330;-49
2023/01/13 02:21:26;;;;;;;;;1.00;0.00;;;;;11.77;73.80;100798.09;6121878;23;45316;-42
2023/01/13 02:27:46;;;;;;;;;0.67;0.33;;;;;11.76;73.89;100795.59;6062333;23;45220;-51
2023/01/13 02:33:54;;;;;;;;;0.67;0.00;;;;;11.59;74.32;100798.13;6062764;23;45390;-52
2023/01/13 02:36:33;;;;;;;;;0.00;0.00;;;;;11.48;74.28;100793.00;6082937;22;45332;-40
2023/01/13 02:39:06;;;;;;;;;0.00;0.00;;;;;11.54;74.95;100804.88;6210525;22;47344;-42
2023/01/13 02:44:57;;;;;;;;;0.00;0.00;;;;;11.47;74.85;100801.97;6211179;22;45257;-50
2023/01/13 02:47:29;;;;;;;;;0.00;0.00;;;;;11.34;75.11;100799.69;6210892;22;45229;-53
2023/01/13 02:50:00;;;;;;;;;0.00;0.00;;;;;11.39;74.90;100804.56;6210551;22;46316;-50
2023/01/13 02:52:35;;;;;;;;;1.00;0.00;;;;;11.36;75.24;100796.88;6211327;22;45211;-44
2023/01/13 02:55:07;;;;;;;;;2.33;0.00;;;;;11.33;75.43;100803.31;6210858;22;45279;-41
2023/01/13 02:57:35;;;;;;;;;2.00;1.00;;;;;11.30;74.91;100811.63;6210768;22;45432;-48
2023/01/13 03:00:04;;;;;;;;;0.00;0.00;;;;;11.28;74.97;100813.59;6210925;22;45384;-43
2023/01/13 03:02:30;;;;;;;;;0.00;0.00;;;;;11.23;75.33;100813.19;6274845;22;46129;-53
2023/01/13 03:04:57;;;;;;;;;1.33;0.00;;;;;11.24;75.10;100825.53;6275348;22;45319;-49
2023/01/13 03:07:25;;;;;;;;;0.00;0.00;;;;;11.22;75.40;100815.03;6275375;22;45419;-54
2023/01/13 03:10:30;;;;;;;;;3.00;0.00;;;;;11.21;75.68;100826.69;6274667;22;46306;-54
2023/01/13 03:13:19;;;;;;;;;0.00;0.00;;;;;11.20;75.03;100826.81;6229913;22;45477;-48
2023/01/13 03:16:02;;;;;;;;;1.00;0.00;;;;;11.23;75.38;100838.00;6275169;22;45291;-54
2023/01/13 03:18:31;;;;;;;;;1.00;1.00;;;;;11.28;75.12;100845.53;6274027;22;45470;-53
2023/01/13 03:21:33;;;;;;;;;0.00;0.00;;;;;11.29;75.01;100851.69;6274669;22;47165;-41
2023/01/13 03:24:10;;;;;;;;;2.00;0.00;;;;;11.32;74.60;100846.09;6120579;23;45394;-41
2023/01/13 03:26:41;;;;;;;;;0.00;0.00;;;;;11.33;74.56;100837.94;6120574;23;45410;-55
2023/01/13 03:29:15;;;;;;;;;0.00;0.00;;;;;11.36;74.17;100829.66;6120878;23;45236;-57
2023/01/13 03:31:56;;;;;;;;;0.00;0.00;;;;;11.38;74.19;100842.84;6120750;23;45328;-51
2023/01/13 03:34:30;;;;;;;;;1.00;0.67;;;;;11.42;74.22;100833.56;6120189;23;45515;-52
2023/01/13 03:37:00;;;;;;;;;1.00;0.00;;;;;11.43;73.90;100836.06;6121197;23;45511;-54
2023/01/13 03:39:30;;;;;;;;;2.00;0.00;;;;;11.45;73.30;100846.56;6120480;23;45337;-55
2023/01/13 03:42:03;;;;;;;;;1.00;0.00;;;;;11.47;73.63;100850.75;6120518;23;45450;-54
2023/01/13 03:44:34;;;;;;;;;0.00;0.00;;;;;11.48;73.88;100841.78;6120168;23;45457;-49
2023/01/13 03:47:12;;;;;;;;;0.00;0.00;;;;;11.50;73.13;100849.59;6120655;23;45275;-51
2023/01/13 03:49:55;;;;;;;;;2.00;0.00;;;;;11.51;73.13;100851.31;6120607;23;45334;-53
2023/01/13 03:52:45;;;;;;;;;4.00;1.00;;;;;11.52;73.16;100850.31;6120077;23;47015;-53
2023/01/13 03:55:20;;;;;;;;;0.67;0.00;;;;;11.53;72.41;100845.81;6120303;23;45366;-49
2023/01/13 03:58:21;;;;;;;;;1.33;0.00;;;;;11.52;72.89;100844.16;6120938;23;45362;-43
2023/01/13 04:00:55;;;;;;;;;0.00;0.00;;;;;11.52;72.63;100837.00;6098712;23;45216;-41
2023/01/13 04:03:39;;;;;;;;;0.00;0.00;;;;;11.44;72.68;100829.75;6150116;23;46220;-52
2023/01/13 04:06:14;;;;;;;;;1.00;0.00;;;;;11.52;72.74;100834.34;6150380;23;45716;-47
2023/01/13 04:08:47;;;;;;;;;1.00;0.00;;;;;11.52;72.34;100836.16;6150141;23;45256;-51
2023/01/13 04:11:21;;;;;;;;;0.00;0.00;;;;;11.51;72.59;100845.16;6150340;23;45327;-42
2023/01/13 04:13:48;;;;;;;;;0.00;0.00;;;;;11.54;72.06;100843.00;6150045;23;45519;-52
2023/01/13 04:16:14;;;;;;;;;0.00;0.00;;;;;11.48;72.13;100841.78;6150406;23;45450;-45
2023/01/13 04:18:39;;;;;;;;;5.33;0.00;;;;;11.54;71.82;100848.31;6150414;23;45237;-54
2023/01/13 04:21:06;;;;;;;;;0.00;0.00;;;;;11.55;71.23;100855.34;6151066;23;45265;-51
2023/01/13 04:23:31;;;;;;;;;0.00;0.00;;;;;11.53;71.58;100854.66;6149823;23;46918;-52
2023/01/13 04:25:57;;;;;;;;;0.00;0.00;;;;;11.54;71.24;100860.81;6150258;23;45239;-53
2023/01/13 04:28:24;;;;;;;;;0.00;0.00;;;;;11.48;71.93;100847.09;6149803;23;45482;-51
2023/01/13 04:30:50;;;;;;;;;2.00;0.33;;;;;11.52;71.88;100858.31;6149937;23;45445;-53
2023/01/13 04:33:17;;;;;;;;;2.00;0.00;;;;;11.47;71.19;100856.09;6150214;23;45248;-47
2023/01/13 04:35:43;;;;;;;;;1.00;1.00;;;;;11.53;71.11;100872.47;6150304;23;45442;-46
2023/01/13 04:38:11;;;;;;;;;0.00;0.00;;;;;11.51;71.05;100864.63;6240376;22;45192;-53
2023/01/13 04:40:38;;;;;;;;;0.00;0.00;;;;;11.50;71.32;100868.25;6274912;22;45276;-52
2023/01/13 04:43:03;;;;;;;;;0.67;0.67;;;;;11.49;71.03;100888.72;6273998;22;46242;-49
2023/01/13 04:45:30;;;;;;;;;0.67;0.33;;;;;11.46;71.25;100880.19;6273568;22;45271;-45
2023/01/13 04:47:55;;;;;;;;;2.67;0.00;;;;;11.43;71.01;100886.69;6275027;22;45296;-52
2023/01/13 04:50:21;;;;;;;;;2.33;0.00;;;;;11.38;70.92;100888.13;6274535;22;45241;-52
2023/01/13 04:52:48;;;;;;;;;0.67;0.00;;;;;11.30;70.40;100880.03;6276033;22;45357;-58
2023/01/13 04:55:14;;;;;;;;;1.33;1.00;;;;;11.26;71.25;100879.50;6275690;22;45311;-56
2023/01/13 04:57:39;;;;;;;;;0.00;0.00;;;;;11.21;70.51;100887.09;6276244;22;45280;-55
2023/01/13 05:00:06;;;;;;;;;0.00;0.00;;;;;11.12;70.70;100875.47;6275541;22;45435;-54
2023/01/13 05:02:31;;;;;;;;;3.00;0.00;;;;;11.13;70.52;100895.81;6275457;22;46133;-48
2023/01/13 05:04:57;;;;;;;;;0.00;0.00;;;;;11.10;70.51;100890.75;6276141;22;45249;-55
2023/01/13 05:07:22;;;;;;;;;5.00;1.00;;;;;11.03;70.04;100881.66;6275613;22;45174;-59
2023/01/13 05:09:48;;;;;;;;;1.00;0.00;;;;;10.99;70.06;100882.94;6276335;22;45321;-51
2023/01/13 05:17:42;;;;;;;;;5.00;1.00;;;;;10.89;69.64;100895.47;6275809;22;45304;-55
2023/01/13 05:20:08;;;;;;;;;0.00;0.00;;;;;10.86;70.31;100895.75;6275957;22;45348;-54
2023/01/13 05:25:21;;;;;;;;;2.00;0.00;;;;;10.81;70.03;100916.63;6275523;22;45190;-52
2023/01/13 05:27:50;;;;;;;;;1.33;0.00;;;;;10.76;70.37;100916.22;6275431;22;45244;-51
2023/01/13 05:30:16;;;;;;;;;2.33;1.00;;;;;10.69;69.91;100908.81;6275427;22;45369;-54
2023/01/13 05:32:41;;;;;;;;;2.00;0.00;;;;;10.72;70.72;100935.13;6275010;22;45268;-54
2023/01/13 05:35:07;;;;;;;;;1.67;1.00;;;;;10.72;70.31;100944.94;6275292;22;45255;-55
2023/01/13 05:37:32;;;;;;;;;0.00;0.00;;;;;10.72;70.64;100948.44;6275744;22;45194;-47
2023/01/13 05:45:26;;;;;;;;;4.33;1.00;;;;;10.70;70.63;100952.22;6275382;22;45304;-52
2023/01/13 05:47:51;;;;;;;;;0.67;0.67;;;;;10.68;70.30;100960.34;6275784;22;45534;-55
2023/01/13 05:50:17;;;;;;;;;1.00;1.00;;;;;10.65;70.57;100949.97;6275617;22;45328;-55
2023/01/13 05:52:42;;;;;;;;;1.00;1.00;;;;;10.55;70.50;100943.84;6274901;22;47241;-54
2023/01/13 05:55:08;;;;;;;;;0.00;0.00;;;;;10.59;69.96;100955.88;6275154;22;45207;-51
2023/01/13 05:57:34;;;;;;;;;0.33;0.00;;;;;10.57;70.42;100949.00;6275494;22;45337;-53
2023/01/13 05:59:59;;;;;;;;;3.00;1.67;;;;;10.56;70.31;100956.16;6275390;22;45269;-45
2023/01/13 06:02:25;;;;;;;;;1.00;0.00;;;;;10.51;70.48;100955.75;6274668;22;49739;-48
2023/01/13 06:04:51;;;;;;;;;3.00;0.00;;;;;10.54;70.17;100963.47;6275020;22;45274;-50
2023/01/13 06:07:16;;;;;;;;;6.00;1.33;;;;;10.52;70.16;100975.19;6275769;22;45198;-55
2023/01/13 06:09:42;;;;;;;;;2.00;0.00;;;;;10.49;69.99;100969.19;6275654;22;45289;-43
2023/01/13 06:12:11;;;;;;;;;1.00;0.00;;;;;10.42;69.67;100969.91;6275405;22;45305;-52
2023/01/13 06:14:39;;;;;;;;;2.00;1.00;;;;;10.45;69.71;100990.91;6273645;22;45472;-48
2023/01/13 06:17:09;;;;;;;;;5.00;1.00;;;;;10.45;69.80;100991.75;6275525;22;45236;-52
2023/01/13 06:19:35;;;;;;;;;1.00;1.00;;;;;10.44;69.58;100999.84;6275435;22;45382;-52
2023/01/13 06:22:15;;;;;;;;;1.33;0.00;;;;;10.43;70.12;101003.47;6273916;22;45301;-51
2023/01/13 06:24:40;;;;;;;;;1.00;0.67;;;;;10.40;69.53;101007.25;6274825;22;45284;-43
2023/01/13 06:27:09;;;;;;;;;3.00;0.00;;;;;10.41;69.70;101005.47;6275571;22;45244;-53
2023/01/13 06:29:34;;;;;;;;;0.33;0.33;;;;;10.39;69.41;101000.25;6275043;22;45384;-53
2023/01/13 06:32:04;;;;;;;;;0.67;0.00;;;;;10.38;69.80;101029.66;6275473;22;46138;-55
2023/01/13 06:34:30;;;;;;;;;5.33;1.00;;;;;10.35;70.05;101019.28;6275547;22;45277;-53
2023/01/13 06:36:56;;;;;;;;;1.00;0.33;;;;;10.36;69.12;101026.28;6274924;22;45277;-55
2023/01/13 06:39:26;;;;;;;;;2.67;1.00;;;;;10.34;69.78;101028.25;6274963;22;45345;-55
2023/01/13 06:44:37;;;;;;;;;6.00;3.00;;;;;10.33;69.41;101043.38;6275019;22;45274;-53
2023/01/13 06:47:03;;;;;;;;;1.00;1.00;;;;;10.36;69.03;101039.56;6275434;22;45362;-52
2023/01/13 06:49:29;;;;;;;;;3.00;1.00;;;;;10.38;69.09;101040.28;6275294;22;45127;-53
2023/01/13 06:51:54;;;;;;;;;1.00;1.00;;;;;10.36;68.81;101045.72;6274607;22;46907;-52
2023/01/13 06:54:19;;;;;;;;;2.67;1.33;;;;;10.33;69.18;101043.38;6275117;22;45317;-51
2023/01/13 06:56:45;;;;;;;;;6.67;3.00;;;;;10.31;69.16;101052.47;6274953;22;47374;-51
2023/01/13 06:59:10;;;;;;;;;5.33;1.67;;;;;10.30;69.14;101040.16;6275128;22;45499;-49
2023/01/13 07:01:35;;;;;;;;;1.67;1.00;;;;;10.25;68.82;101048.53;6275051;22;46783;-43
2023/01/13 07:04:01;;;;;;;;;3.67;1.33;;;;;10.25;68.97;101056.50;6273820;22;45241;-57
2023/01/13 07:06:27;;;;;;;;;3.00;1.33;;;;;10.26;68.85;101068.81;6274423;22;45354;-50
2023/01/13 07:08:53;;;;;;;;;3.67;1.00;;;;;10.25;68.96;101072.47;6275330;22;45353;-51
2023/01/13 07:11:18;;;;;;;;;3.00;1.00;;;;;10.24;69.00;101058.34;6274310;22;45186;-55
2023/01/13 07:16:28;;;;;;;;;1.33;0.33;;;;;10.31;69.04;101065.75;6275300;22;45456;-51
2023/01/13 07:18:53;;;;;;;;;6.33;1.67;;;;;10.28;68.86;101069.53;6274871;22;45275;-51
2023/01/13 07:21:19;;;;;;;;;2.00;2.00;;;;;10.26;68.95;101081.28;6274901;22;45836;-55
2023/01/13 07:23:46;;;;;;;;;2.33;0.67;;;;;10.27;69.00;101088.28;6275432;22;45120;-50
2023/01/13 07:26:13;;;;;;;;;1.33;1.33;;;;;10.27;69.40;101093.59;6274640;22;45191;-41
2023/01/13 07:28:39;;;;;;;;;4.67;0.33;;;;;10.16;69.13;101081.22;6274990;22;45444;-51
2023/01/13 07:31:11;;;;;;;;;3.33;1.00;;;;;10.23;69.34;101096.47;6274308;22;47202;-49
2023/01/13 07:33:37;;;;;;;;;0.00;0.00;;;;;10.21;69.33;101089.63;6274873;22;45320;-43
2023/01/13 07:36:04;;;;;;;;;2.00;2.00;;;;;10.12;69.46;101075.34;6274971;22;45688;-52
2023/01/13 07:38:31;;;;;;;;;0.67;0.00;;;;;10.20;69.45;101099.44;6275214;22;45269;-46
2023/01/13 07:40:57;;;;;;;;;1.00;1.00;;;;;10.16;69.46;101105.16;6274985;22;46948;-48
2023/01/13 07:43:31;;;;;;;;;4.33;1.00;;;;;10.24;69.69;101118.63;6275047;22;45362;-42
2023/01/13 07:46:04;;;;;;;;;0.67;0.67;;;;;10.28;69.68;101116.53;6273495;22;45270;-54
2023/01/13 07:48:31;;;;;;;;;1.33;1.00;;;;;10.27;69.50;101115.69;6275326;22;45341;-49
2023/01/13 07:51:01;;;;;;;;;1.00;1.00;;;;;10.26;69.44;101110.53;6274433;22;47543;-49
2023/01/13 07:53:27;;;;;;;;;2.00;0.00;;;;;10.23;69.93;101115.09;6274583;22;45308;-54
2023/01/13 07:55:56;;;;;;;;;6.00;0.33;;;;;10.20;70.05;101130.50;6275175;22;45222;-40
2023/01/13 07:58:23;;;;;;;;;4.33;1.00;;;;;10.19;70.16;101142.09;6274991;22;45344;-47
2023/01/13 08:00:48;;;;;;;;;1.00;1.00;;;;;10.18;70.01;101141.25;6274491;22;46253;-41
2023/01/13 08:03:13;;;;;;;;;5.00;1.00;;;;;10.23;70.16;101146.16;6274533;22;45375;-41
2023/01/13 08:05:39;;;;;;;;;3.00;0.00;;;;;10.20;69.90;101151.78;6275005;22;45312;-53
2023/01/13 08:08:04;;;;;;;;;1.00;1.00;;;;;10.24;70.15;101153.19;6275431;22;45792;-51
2023/01/13 08:10:30;;;;;;;;;4.00;1.00;;;;;10.30;70.01;101149.16;6274637;22;46440;-54
2023/01/13 08:15:39;;;;;;;;;5.67;1.33;;;;;10.32;69.93;101147.19;6275271;22;45279;-54
2023/01/13 08:18:04;;;;;;;;;1.67;1.00;;;;;10.29;70.06;101142.16;6273534;22;45498;-55
2023/01/13 08:20:29;;;;;;;;;2.00;1.00;;;;;10.28;70.36;101148.44;6274854;22;46276;-52
2023/01/13 08:22:57;;;;;;;;;5.00;0.67;;;;;10.24;70.23;101147.88;6275833;22;45182;-53
2023/01/13 08:25:23;;;;;;;;;2.67;2.00;;;;;10.32;69.90;101168.47;6275907;22;45250;-55
2023/01/13 08:27:49;;;;;;;;;6.67;3.00;;;;;10.31;70.23;101156.16;6276440;22;45259;-54
2023/01/13 08:30:14;;;;;;;;;3.00;1.00;;;;;10.39;70.15;101164.31;6275885;22;45399;-55
2023/01/13 08:32:43;;;;;;;;;4.00;1.33;;;;;10.39;69.79;101154.50;6275365;22;45261;-47
2023/01/13 08:35:08;;;;;;;;;1.00;1.00;;;;;10.51;69.80;101170.38;6275941;22;45362;-52
2023/01/13 08:37:33;;;;;;;;;1.33;0.00;;;;;10.53;69.69;101169.22;6276135;22;45352;-54
2023/01/13 08:39:59;;;;;;;;;3.67;2.00;;;;;10.57;69.71;101181.28;6275101;22;46153;-55
2023/01/13 08:42:25;;;;;;;;;1.00;1.00;;;;;10.62;69.42;101156.94;6275245;22;45284;-50
2023/01/13 08:44:51;;;;;;;;;2.67;0.00;;;;;10.66;69.24;101177.84;6276073;22;45151;-54
2023/01/13 08:47:17;;;;;;;;;4.67;1.00;;;;;10.70;69.11;101173.06;6275753;22;45249;-55
2023/01/13 08:49:42;;;;;;;;;2.00;2.00;;;;;10.66;69.04;101180.50;6248107;22;46911;-56
2023/01/13 08:52:07;;;;;;;;;1.00;1.00;;;;;10.68;69.12;101177.69;6275893;22;45709;-53
2023/01/13 08:54:33;;;;;;;;;7.00;1.00;;;;;10.71;68.91;101177.44;6276438;22;45214;-52
2023/01/13 08:56:58;;;;;;;;;2.00;0.33;;;;;10.66;68.79;101163.66;6275906;22;45154;-42
2023/01/13 08:59:23;;;;;;;;;3.67;2.00;;;;;10.74;68.94;101170.00;6275506;22;45932;-51
2023/01/13 09:01:49;;;;;;;;;2.00;0.00;;;;;10.74;68.53;101171.81;6276003;22;45266;-54
2023/01/13 09:04:18;;;;;;;;;3.67;2.00;;;;;10.79;68.57;101184.69;6275772;22;45259;-51
2023/01/13 09:06:44;;;;;;;;;3.00;0.00;;;;;10.86;68.63;101194.66;6275971;22;45443;-53
2023/01/13 09:09:10;;;;;;;;;2.33;1.00;;;;;10.92;68.46;101183.47;6275725;22;45187;-48
2023/01/13 09:14:26;;;;;;;;;5.33;1.00;;;;;10.97;67.70;101199.88;6275217;22;45308;-51
2023/01/13 09:16:51;;;;;;;;;5.00;0.00;;;;;11.03;68.08;101197.63;6276034;22;45207;-54
2023/01/13 09:19:17;;;;;;;;;1.50;1.00;;;;;11.09;68.07;101205.91;6275182;22;47215;-44
2023/01/13 09:21:42;;;;;;;;;1.00;1.00;;;;;11.18;67.59;101201.56;6276391;22;45326;-50
2023/01/13 09:24:08;;;;;;;;;2.00;0.00;;;;;11.30;67.83;101204.94;6274685;22;45343;-41
2023/01/13 09:26:33;;;;;;;;;7.67;2.00;;;;;11.49;67.02;101200.44;6275342;22;45222;-52
2023/01/13 09:28:59;;;;;;;;;3.00;1.67;;;;;12.00;66.45;101203.75;6275744;22;46183;-40
2023/01/13 09:31:24;;;;;;;;;1.00;1.00;;;;;12.91;63.21;101194.06;6274969;22;45647;-49
2023/01/13 09:36:33;;;;;;;;;2.00;0.00;;;;;14.37;59.96;101214.09;6275921;22;45358;-43
2023/01/13 09:38:59;;;;;;;;;2.33;1.00;;;;;14.76;57.43;101205.59;6274411;22;46245;-44
2023/01/13 09:44:18;;;;;;;;;0.33;0.00;;;;;17.27;54.69;101210.66;6275705;22;45314;-43
2023/01/13 09:46:51;;;;;;;;;5.33;3.00;;;;;18.17;49.65;101221.50;6275503;22;45199;-52
2023/01/13 09:49:21;;;;;;;;;3.67;2.00;;;;;17.70;49.40;101219.06;6247348;22;46970;-45
2023/01/13 09:52:08;;;;;;;;;2.33;1.00;;;;;17.14;51.78;101184.34;6274682;22;45291;-49
2023/01/13 09:54:41;;;;;;;;;1.00;1.00;;;;;15.81;52.97;101209.41;6275666;22;45462;-54
2023/01/13 09:57:09;;;;;;;;;2.67;1.67;;;;;15.03;53.16;101224.06;6275365;22;45164;-52
2023/01/13 09:59:36;;;;;;;;;0.67;0.67;;;;;14.60;55.39;101233.13;6274168;22;46238;-51
2023/01/13 10:02:32;;;;;;;;;3.33;1.00;;;;;14.23;57.15;101229.72;6274576;22;45297;-52
2023/01/13 10:05:40;;;;;;;;;0.33;0.33;;;;;13.97;58.04;101243.13;6274792;22;45214;-53
2023/01/13 10:08:16;;;;;;;;;5.00;2.67;;;;;15.07;55.97;101244.16;6275158;22;45352;-45
2023/01/13 10:10:46;;;;;;;;;2.33;1.00;;;;;15.35;55.20;101249.25;6273716;22;45494;-54
2023/01/13 10:13:19;;;;;;;;;3.00;0.00;;;;;15.03;53.89;101247.34;6274938;22;45443;-43
2023/01/13 10:16:17;;;;;;;;;2.00;0.00;;;;;14.73;54.75;101260.28;6274965;22;45391;-55
2023/01/13 10:19:13;;;;;;;;;1.67;1.33;;;;;14.75;55.20;101246.72;6274931;22;45265;-51
2023/01/13 10:22:00;;;;;;;;;6.00;2.00;;;;;14.56;55.76;101262.06;6274550;22;46230;-50
2023/01/13 10:24:41;;;;;;;;;4.00;2.33;;;;;14.35;54.92;101272.28;6275065;22;45186;-53
2023/01/13 10:27:16;;;;;;;;;1.67;0.00;;;;;14.78;55.23;101276.72;6247296;22;45368;-53
2023/01/13 10:29:41;;;;;;;;;6.33;3.00;;;;;16.98;53.40;101269.63;6275724;22;45294;-56
2023/01/13 10:32:07;;;;;;;;;1.33;0.33;;;;;18.14;48.98;101262.25;6274537;22;45198;-55
2023/01/13 10:34:46;;;;;;;;;1.33;0.33;;;;;18.89;47.22;101269.34;6275106;22;45345;-55
2023/01/13 10:37:20;;;;;;;;;3.00;0.25;;;;;19.86;44.52;101262.69;6275088;22;45263;-54
2023/01/13 10:39:47;;;;;;;;;2.75;1.00;;;;;19.45;43.93;101247.13;6275261;22;45183;-55
2023/01/13 10:42:16;;;;;;;;;2.00;0.75;;;;;18.48;45.14;101266.25;6275212;22;45469;-57
2023/01/13 10:44:48;;;;;;;;;1.00;0.50;;;;;18.90;45.62;101265.59;6274340;22;45265;-46
2023/01/13 10:47:24;;;;;;;;;2.00;0.00;;;;;19.03;45.87;101278.41;6274792;22;45415;-48
2023/01/13 10:50:02;;;;;;;;;5.25;2.50;;;;;17.94;46.10;101288.84;6275125;22;45238;-49
2023/01/13 10:52:30;;;;;;;;;3.00;2.00;;;;;17.21;47.14;101282.13;6273814;22;46179;-45
2023/01/13 10:54:56;;;;;;;;;3.00;1.00;;;;;16.52;48.78;101291.81;6275777;22;45349;-49
2023/01/13 10:57:24;;;;;;;;;4.75;0.50;;;;;15.86;49.84;101298.25;6275589;22;45172;-53
2023/01/13 10:59:50;;;;;;;;;4.75;1.50;;;;;15.42;51.03;101317.28;6275512;22;45349;-41
2023/01/13 11:02:15;;;;;;;;;1.00;0.00;;;;;16.04;51.29;101311.50;6275228;22;45294;-50
2023/01/13 11:04:52;;;;;;;;;2.33;0.33;;;;;15.61;51.42;101318.84;6274600;22;45448;-47
2023/01/13 11:07:48;;;;;;;;;1.00;1.00;;;;;15.22;52.41;101324.78;6274040;22;45297;-40
2023/01/13 11:10:16;;;;;;;;;4.33;0.00;;;;;15.13;52.58;101331.94;6275169;22;45317;-54
2023/01/13 11:13:10;;;;;;;;;0.67;0.67;;;;;14.75;54.15;101338.66;6273731;22;45455;-41
2023/01/13 11:15:45;;;;;;;;;2.00;0.33;;;;;14.38;55.03;101322.84;6266794;22;45285;-42
2023/01/13 11:18:25;;;;;;;;;0.67;0.00;;;;;14.11;55.61;101321.94;6274961;22;45277;-51
2023/01/13 11:20:54;;;;;;;;;0.00;0.00;;;;;13.94;55.51;101333.53;6275556;22;45251;-46
2023/01/13 11:23:31;;;;;;;;;6.33;4.00;;;;;13.96;56.22;101331.56;6274187;22;47130;-48
2023/01/13 11:26:32;;;;;;;;;1.00;1.00;;;;;14.56;55.86;101320.97;6274317;22;45233;-46
2023/01/13 11:29:13;;;;;;;;;3.00;1.00;;;;;14.92;54.72;101323.50;6274835;22;45356;-50
2023/01/13 11:31:46;;;;;;;;;1.00;1.00;;;;;14.61;54.53;101332.03;6274662;22;45274;-41
2023/01/13 11:34:38;;;;;;;;;2.00;1.00;;;;;14.20;55.03;101334.44;6274285;22;45957;-42
2023/01/13 11:37:16;;;;;;;;;2.00;1.00;;;;;13.90;55.36;101353.53;6274583;22;45301;-47
2023/01/13 11:39:54;;;;;;;;;2.00;0.67;;;;;13.70;56.83;101352.88;6274310;22;45297;-46
2023/01/13 11:42:33;;;;;;;;;2.00;0.00;;;;;13.54;57.10;101345.53;6275596;22;45108;-41
2023/01/13 11:45:06;;;;;;;;;1.67;0.00;;;;;13.30;56.80;101347.94;6274299;22;46117;-41
2023/01/13 11:47:34;;;;;;;;;2.00;1.00;;;;;13.21;57.27;101355.81;6274234;22;45269;-41
2023/01/13 11:50:00;;;;;;;;;2.00;1.00;;;;;13.47;56.81;101352.47;6246708;22;45216;-52
2023/01/13 11:52:46;;;;;;;;;1.00;1.00;;;;;13.39;56.79;101349.69;6275090;22;45253;-45
2023/01/13 11:55:45;;;;;;;;;3.00;1.00;;;;;13.77;56.32;101348.56;6273269;22;45459;-44
2023/01/13 11:58:23;;;;;;;;;2.67;1.00;;;;;14.01;56.67;101341.78;6274337;22;45363;-41
2023/01/13 12:01:23;;;;;;;;;2.00;1.00;;;;;14.13;55.77;101354.75;6247698;22;45440;-42
2023/01/13 12:03:57;;;;;;;;;1.00;1.00;;;;;14.69;55.26;101340.09;6274684;22;45303;-50
2023/01/13 12:06:33;;;;;;;;;8.00;2.00;;;;;15.12;53.64;101351.69;6274014;22;46128;-53
2023/01/13 12:09:22;;;;;;;;;2.00;1.00;;;;;15.85;52.53;101340.34;6274745;22;45180;-49
2023/01/13 12:12:22;;;;;;;;;2.00;1.00;;;;;15.58;51.59;101346.81;6274855;22;45523;-42
2023/01/13 12:14:59;;;;;;;;;1.00;1.00;;;;;15.52;50.80;101338.59;6274662;22;45190;-56
2023/01/13 12:17:36;;;;;;;;;2.00;0.00;;;;;16.62;48.46;101337.25;6274195;22;46214;-41
2023/01/13 12:20:33;;;;;;;;;4.00;0.00;;;;;16.89;48.77;101309.16;6274406;22;45384;-49
2023/01/13 12:23:05;;;;;;;;;3.00;2.00;;;;;17.42;46.91;101335.28;6119662;23;45309;-42
2023/01/13 12:25:41;;;;;;;;;4.33;1.00;;;;;17.53;45.87;101344.81;6120324;23;45373;-52